createdAt,value
2022-09-09T00:02:24.792Z,24.60
2022-09-09T00:07:33.776Z,28.42
2022-09-09T00:12:40.504Z,31.65
2022-09-09T00:18:01.178Z,33.97
2022-09-09T00:23:10.571Z,29.85
2022-09-09T00:28:19.817Z,36.78
2022-09-09T00:33:24.901Z,33.20
2022-09-09T00:38:33.254Z,36.97
2022-09-09T00:43:41.348Z,32.13
2022-09-09T00:49:21.940Z,25.85
2022-09-09T00:54:43.048Z,18.33
2022-09-09T00:59:50.183Z,16.58
2022-09-09T01:04:51.976Z,20.50
2022-09-09T01:09:58.253Z,19.45
2022-09-09T01:15:12.766Z,24.98
2022-09-09T01:20:31.299Z,37.00
2022-09-09T01:25:45.522Z,34.47
2022-09-09T01:30:58.717Z,30.85
2022-09-09T01:36:09.251Z,30.38
2022-09-09T01:41:23.958Z,28.63
2022-09-09T01:46:34.534Z,30.00
2022-09-09T01:51:39.337Z,37.92
2022-09-09T01:57:05.057Z,43.15
2022-09-09T02:02:28.021Z,33.95
2022-09-09T02:08:29.420Z,24.92
2022-09-09T02:13:39.728Z,25.08
2022-09-09T02:19:27.446Z,21.10
2022-09-09T02:24:47.251Z,33.38
2022-09-09T02:29:57.807Z,29.58
2022-09-09T02:35:16.907Z,23.85
2022-09-09T02:40:23.794Z,21.88
2022-09-09T02:45:43.268Z,25.77
2022-09-09T02:50:57.027Z,27.75
2022-09-09T02:56:12.623Z,29.65
2022-09-09T03:01:18.451Z,34.80
2022-09-09T03:06:24.153Z,37.45
2022-09-09T03:11:36.711Z,33.08
2022-09-09T03:16:39.689Z,32.70
2022-09-09T03:21:46.423Z,40.42
2022-09-09T03:26:51.505Z,40.08
2022-09-09T03:31:55.868Z,35.30
2022-09-09T03:37:05.253Z,42.75
2022-09-09T03:42:13.414Z,34.70
2022-09-09T03:47:25.055Z,35.65
2022-09-09T03:52:35.131Z,27.10
2022-09-09T03:57:44.425Z,25.73
2022-09-09T04:02:46.803Z,26.42
2022-09-09T04:07:52.396Z,24.25
2022-09-09T04:12:57.154Z,29.08
2022-09-09T04:18:03.072Z,31.38
2022-09-09T04:23:10.498Z,32.40
2022-09-09T04:28:12.241Z,37.53
2022-09-09T04:33:18.279Z,32.40
2022-09-09T04:38:20.646Z,33.25
2022-09-09T04:43:23.457Z,35.92
2022-09-09T04:48:30.267Z,33.63
2022-09-09T04:53:32.417Z,33.75
2022-09-09T04:58:37.350Z,32.57
2022-09-09T05:03:40.434Z,38.60
2022-09-09T05:08:49.199Z,37.25
2022-09-09T05:13:59.496Z,39.53
2022-09-09T05:19:04.699Z,38.55
2022-09-09T05:24:21.051Z,34.58
2022-09-09T05:29:29.530Z,34.42
2022-09-09T05:34:40.382Z,33.78
2022-09-09T05:39:45.598Z,33.95
2022-09-09T05:44:55.354Z,35.65
2022-09-09T05:50:02.496Z,33.28
2022-09-09T05:55:05.594Z,36.80
2022-09-09T06:00:13.383Z,29.20
2022-09-09T06:05:28.353Z,32.88
2022-09-09T06:10:32.668Z,27.90
2022-09-09T06:15:36.911Z,31.90
2022-09-09T06:20:43.519Z,29.15
2022-09-09T06:25:47.824Z,24.67
2022-09-09T06:30:59.552Z,31.67
2022-09-09T06:36:03.021Z,27.60
2022-09-09T06:41:09.667Z,23.10
2022-09-09T06:46:23.445Z,22.30
2022-09-09T06:51:35.045Z,17.92
2022-09-09T06:56:42.903Z,12.20
2022-09-09T07:01:55.991Z,16.23
2022-09-09T07:06:59.920Z,12.95
2022-09-09T07:12:07.313Z,12.48
2022-09-09T07:17:14.158Z,7.93
2022-09-09T07:22:18.231Z,8.85
2022-09-09T07:27:22.861Z,12.15
2022-09-09T07:32:26.965Z,11.18
2022-09-09T07:37:31.158Z,10.00
2022-09-09T07:42:33.216Z,10.18
2022-09-09T07:47:38.566Z,12.27
2022-09-09T07:52:40.414Z,10.55
2022-09-09T07:57:45.415Z,14.27
2022-09-09T08:02:47.831Z,10.60
2022-09-09T08:07:49.731Z,8.68
2022-09-09T08:13:14.655Z,8.38
2022-09-09T08:18:15.740Z,9.88
2022-09-09T08:23:20.005Z,9.48
2022-09-09T08:28:22.873Z,8.77
2022-09-09T08:33:29.522Z,8.55
2022-09-09T08:38:31.504Z,7.68
2022-09-09T08:43:37.043Z,8.82
2022-09-09T08:48:48.565Z,8.95
2022-09-09T08:53:53.615Z,12.10
2022-09-09T08:59:03.743Z,8.60
2022-09-09T09:04:39.740Z,7.43
2022-09-09T09:09:47.838Z,10.68
2022-09-09T09:14:53.245Z,8.25
2022-09-09T09:20:00.723Z,6.82
2022-09-09T09:25:25.174Z,11.77
2022-09-09T09:30:53.571Z,10.68
2022-09-09T09:35:57.816Z,11.43
2022-09-09T09:41:02.940Z,9.82
2022-09-09T09:46:17.188Z,10.35
2022-09-09T09:51:22.062Z,10.10
2022-09-09T09:56:30.187Z,9.95
2022-09-09T10:01:36.506Z,9.73
2022-09-09T10:06:45.547Z,13.50
2022-09-09T10:12:10.573Z,12.82
2022-09-09T10:17:41.227Z,9.48
2022-09-09T10:23:07.216Z,10.10
2022-09-09T10:28:19.149Z,7.72
2022-09-09T10:33:37.195Z,5.90
2022-09-09T10:38:44.460Z,7.13
2022-09-09T10:44:08.188Z,9.05
2022-09-09T10:49:25.489Z,6.78
2022-09-09T10:54:36.087Z,7.10
2022-09-09T10:59:49.000Z,5.90
2022-09-09T11:04:55.295Z,8.05
2022-09-09T11:10:04.774Z,5.13
2022-09-09T11:15:24.990Z,6.93
2022-09-09T11:20:29.584Z,6.28
2022-09-09T11:25:41.730Z,5.60
2022-09-09T11:30:56.722Z,6.05
2022-09-09T11:36:32.339Z,6.78
2022-09-09T11:41:38.528Z,7.82
2022-09-09T11:46:42.351Z,4.88
2022-09-09T11:51:44.415Z,6.20
2022-09-09T11:56:57.600Z,7.32
2022-09-09T12:02:10.163Z,5.68
2022-09-09T12:07:35.505Z,9.15
2022-09-09T12:12:44.209Z,6.30
2022-09-09T12:17:51.563Z,7.25
2022-09-09T12:23:04.769Z,5.97
2022-09-09T12:28:28.879Z,5.43
2022-09-09T12:33:44.279Z,23.13
2022-09-09T12:38:48.916Z,6.70
2022-09-09T12:43:51.685Z,4.70
2022-09-09T12:48:55.364Z,4.70
2022-09-09T12:53:58.050Z,7.57
2022-09-09T12:59:02.242Z,4.88
2022-09-09T13:04:21.235Z,3.15
2022-09-09T13:09:25.674Z,2.80
2022-09-09T13:14:33.616Z,5.22
2022-09-09T13:19:39.890Z,4.70
2022-09-09T13:24:43.557Z,4.03
2022-09-09T13:29:53.420Z,7.60
2022-09-09T13:35:00.459Z,5.72
2022-09-09T13:40:08.019Z,5.32
2022-09-09T13:45:21.509Z,8.68
2022-09-09T13:50:27.357Z,6.97
2022-09-09T13:55:31.125Z,9.68
2022-09-09T14:00:35.852Z,8.98
2022-09-09T14:05:40.677Z,5.10
2022-09-09T14:10:45.187Z,8.40
2022-09-09T14:15:49.221Z,8.45
2022-09-09T14:20:51.358Z,7.95
2022-09-09T14:25:57.665Z,7.20
2022-09-09T14:31:04.938Z,10.13
2022-09-09T14:36:10.388Z,12.68
2022-09-09T14:41:23.619Z,12.32
2022-09-09T14:46:27.689Z,18.23
2022-09-09T14:51:30.831Z,15.05
2022-09-09T14:56:35.522Z,13.50
2022-09-09T15:01:37.270Z,14.25
2022-09-09T15:06:40.284Z,15.90
2022-09-09T15:11:45.380Z,14.07
2022-09-09T15:16:50.971Z,13.52
2022-09-09T15:21:52.679Z,16.90
2022-09-09T15:26:54.843Z,8.52
2022-09-09T15:32:00.133Z,10.43
2022-09-09T15:37:16.358Z,9.98
2022-09-09T15:42:18.108Z,7.03
2022-09-09T15:47:20.960Z,6.40
2022-09-09T15:52:24.835Z,7.18
2022-09-09T15:57:29.004Z,8.48
2022-09-09T16:02:31.814Z,11.32
2022-09-09T16:07:36.873Z,8.43
2022-09-09T16:12:42.978Z,9.10
2022-09-09T16:17:47.210Z,9.80
2022-09-09T16:22:48.934Z,10.43
2022-09-09T16:27:50.613Z,10.20
2022-09-09T16:32:54.377Z,11.15
2022-09-09T16:37:58.244Z,9.82
2022-09-09T16:43:02.338Z,13.45
2022-09-09T16:48:05.118Z,11.82
2022-09-09T16:53:10.700Z,13.68
2022-09-09T16:58:15.480Z,12.40
2022-09-09T17:03:17.644Z,6.60
2022-09-09T17:08:20.609Z,11.82
2022-09-09T17:13:23.282Z,5.68
2022-09-09T17:18:29.100Z,6.35
2022-09-09T17:23:35.744Z,8.48
2022-09-09T17:28:41.458Z,6.13
2022-09-09T17:33:48.960Z,7.15
2022-09-09T17:38:53.556Z,7.63
2022-09-09T17:43:58.212Z,7.28
2022-09-09T17:49:03.971Z,8.75
2022-09-09T17:54:10.074Z,6.88
2022-09-09T17:59:18.710Z,11.02
2022-09-09T18:04:23.591Z,6.90
2022-09-09T18:09:30.812Z,8.15
2022-09-09T18:14:35.106Z,9.98
2022-09-09T18:19:39.505Z,14.40
2022-09-09T18:24:48.146Z,9.95
2022-09-09T18:29:49.950Z,11.32
2022-09-09T18:34:55.585Z,12.00
2022-09-09T18:39:59.819Z,13.75
2022-09-09T18:45:02.645Z,14.25
2022-09-09T18:50:09.562Z,14.48
2022-09-09T18:55:13.656Z,10.05
2022-09-09T19:00:15.565Z,11.85
2022-09-09T19:05:20.134Z,14.82
2022-09-09T19:10:21.990Z,14.75
2022-09-09T19:15:24.651Z,10.80
2022-09-09T19:20:28.702Z,13.50
2022-09-09T19:25:37.473Z,8.73
2022-09-09T19:30:40.347Z,8.50
2022-09-09T19:35:42.085Z,10.02
2022-09-09T19:40:52.558Z,7.25
2022-09-09T19:46:02.532Z,6.03
2022-09-09T19:51:23.874Z,5.30
2022-09-09T19:56:33.016Z,4.65
2022-09-09T20:01:40.459Z,10.77
2022-09-09T20:06:44.132Z,5.15
2022-09-09T20:11:48.245Z,7.70
2022-09-09T20:16:54.809Z,9.32
2022-09-09T20:21:56.546Z,5.75
2022-09-09T20:27:07.211Z,10.32
2022-09-09T20:32:12.110Z,10.38
2022-09-09T20:37:17.650Z,6.45
2022-09-09T20:42:21.750Z,7.68
2022-09-09T20:47:26.523Z,6.47
2022-09-09T20:52:30.745Z,9.15
2022-09-09T20:57:38.330Z,6.80
2022-09-09T21:02:40.301Z,8.52
2022-09-09T21:07:42.602Z,10.05
2022-09-09T21:12:45.093Z,8.27
2022-09-09T21:17:46.793Z,9.93
2022-09-09T21:22:54.486Z,18.52
2022-09-09T21:27:59.968Z,9.77
2022-09-09T21:33:09.748Z,11.80
2022-09-09T21:38:17.393Z,7.82
2022-09-09T21:43:20.505Z,8.18
2022-09-09T21:48:23.799Z,5.95
2022-09-09T21:53:27.917Z,9.93
2022-09-09T21:58:32.160Z,7.90
2022-09-09T22:03:42.496Z,8.52
2022-09-09T22:08:47.227Z,8.07
2022-09-09T22:13:53.369Z,10.20
2022-09-09T22:18:59.360Z,10.85
2022-09-09T22:24:02.917Z,10.30
2022-09-09T22:29:12.142Z,9.93
2022-09-09T22:34:16.105Z,12.73
2022-09-09T22:39:17.768Z,12.75
2022-09-09T22:44:29.486Z,12.25
2022-09-09T22:49:34.105Z,16.30
2022-09-09T22:54:41.380Z,11.80
2022-09-09T22:59:43.121Z,13.05
2022-09-09T23:04:46.063Z,12.45
2022-09-09T23:09:51.077Z,14.10
2022-09-09T23:14:56.820Z,11.88
2022-09-09T23:20:04.902Z,12.45
2022-09-09T23:25:07.456Z,12.45
2022-09-09T23:30:11.080Z,10.82
2022-09-09T23:35:12.881Z,12.32
2022-09-09T23:40:22.966Z,10.80
2022-09-09T23:45:24.660Z,13.23
2022-09-09T23:50:32.341Z,11.13
2022-09-09T23:55:39.743Z,10.20
